sensor_id;sensor_type;location;lat;lon;timestamp;P1;durP1;ratioP1;P2;durP2;ratioP2
22429;SDS011;11382;48.086;11.632;2023-06-01T00:01:02;9.55;;;6.45;;
22429;SDS011;11382;48.086;11.632;2023-06-01T00:03:31;12.05;;;7.05;;
22429;SDS011;11382;48.086;11.632;2023-06-01T00:05:59;10.48;;;6.93;;
22429;SDS011;11382;48.086;11.632;2023-06-01T00:08:27;12.27;;;6.85;;
22429;SDS011;11382;48.086;11.632;2023-06-01T00:10:55;8.40;;;6.25;;
22429;SDS011;11382;48.086;11.632;2023-06-01T00:13:23;10.05;;;6.88;;
22429;SDS011;11382;48.086;11.632;2023-06-01T00:15:50;10.48;;;6.47;;
22429;SDS011;11382;48.086;11.632;2023-06-01T00:18:20;10.05;;;6.07;;
22429;SDS011;11382;48.086;11.632;2023-06-01T00:20:48;10.88;;;6.68;;
22429;SDS011;11382;48.086;11.632;2023-06-01T00:23:17;8.77;;;6.18;;
22429;SDS011;11382;48.086;11.632;2023-06-01T00:25:46;9.48;;;7.13;;
22429;SDS011;11382;48.086;11.632;2023-06-01T00:28:14;16.02;;;7.30;;
22429;SDS011;11382;48.086;11.632;2023-06-01T00:30:42;11.85;;;7.47;;
22429;SDS011;11382;48.086;11.632;2023-06-01T00:33:10;14.48;;;6.68;;
22429;SDS011;11382;48.086;11.632;2023-06-01T00:35:39;11.40;;;6.93;;
22429;SDS011;11382;48.086;11.632;2023-06-01T00:38:07;10.70;;;7.07;;
22429;SDS011;11382;48.086;11.632;2023-06-01T00:40:35;11.70;;;7.30;;
22429;SDS011;11382;48.086;11.632;2023-06-01T00:43:03;11.30;;;7.20;;
22429;SDS011;11382;48.086;11.632;2023-06-01T00:45:31;9.68;;;7.00;;
22429;SDS011;11382;48.086;11.632;2023-06-01T00:48:00;11.25;;;7.57;;
22429;SDS011;11382;48.086;11.632;2023-06-01T00:50:28;11.10;;;6.50;;
22429;SDS011;11382;48.086;11.632;2023-06-01T00:52:59;9.10;;;6.60;;
22429;SDS011;11382;48.086;11.632;2023-06-01T00:55:28;12.63;;;6.88;;
22429;SDS011;11382;48.086;11.632;2023-06-01T00:57:56;11.27;;;7.40;;
22429;SDS011;11382;48.086;11.632;2023-06-01T01:00:25;15.48;;;7.70;;
22429;SDS011;11382;48.086;11.632;2023-06-01T01:02:55;13.10;;;8.05;;
22429;SDS011;11382;48.086;11.632;2023-06-01T01:05:23;11.65;;;7.85;;
22429;SDS011;11382;48.086;11.632;2023-06-01T01:07:55;11.68;;;7.35;;
22429;SDS011;11382;48.086;11.632;2023-06-01T01:10:29;10.63;;;7.20;;
22429;SDS011;11382;48.086;11.632;2023-06-01T01:13:01;11.40;;;7.18;;
22429;SDS011;11382;48.086;11.632;2023-06-01T01:15:37;13.68;;;7.78;;
22429;SDS011;11382;48.086;11.632;2023-06-01T01:18:11;10.90;;;7.55;;
22429;SDS011;11382;48.086;11.632;2023-06-01T01:20:48;12.85;;;8.35;;
22429;SDS011;11382;48.086;11.632;2023-06-01T01:23:27;14.65;;;8.32;;
22429;SDS011;11382;48.086;11.632;2023-06-01T01:26:08;13.10;;;8.05;;
22429;SDS011;11382;48.086;11.632;2023-06-01T01:28:45;12.52;;;8.20;;
22429;SDS011;11382;48.086;11.632;2023-06-01T01:31:17;11.55;;;7.15;;
22429;SDS011;11382;48.086;11.632;2023-06-01T01:33:52;13.05;;;7.78;;
22429;SDS011;11382;48.086;11.632;2023-06-01T01:36:23;12.95;;;7.97;;
22429;SDS011;11382;48.086;11.632;2023-06-01T01:38:52;10.48;;;7.72;;
22429;SDS011;11382;48.086;11.632;2023-06-01T01:41:21;9.90;;;7.45;;
22429;SDS011;11382;48.086;11.632;2023-06-01T01:43:50;13.68;;;8.32;;
22429;SDS011;11382;48.086;11.632;2023-06-01T01:46:21;11.95;;;7.78;;
22429;SDS011;11382;48.086;11.632;2023-06-01T01:48:55;13.90;;;8.73;;
22429;SDS011;11382;48.086;11.632;2023-06-01T01:51:32;13.27;;;9.18;;
22429;SDS011;11382;48.086;11.632;2023-06-01T01:54:05;11.25;;;8.30;;
22429;SDS011;11382;48.086;11.632;2023-06-01T01:56:35;12.48;;;8.07;;
22429;SDS011;11382;48.086;11.632;2023-06-01T01:59:06;14.00;;;9.75;;
22429;SDS011;11382;48.086;11.632;2023-06-01T02:01:34;10.63;;;8.20;;
22429;SDS011;11382;48.086;11.632;2023-06-01T02:04:05;12.20;;;8.32;;
22429;SDS011;11382;48.086;11.632;2023-06-01T02:06:34;11.50;;;8.55;;
22429;SDS011;11382;48.086;11.632;2023-06-01T02:09:03;16.65;;;8.88;;
22429;SDS011;11382;48.086;11.632;2023-06-01T02:11:34;12.85;;;8.40;;
22429;SDS011;11382;48.086;11.632;2023-06-01T02:14:03;14.00;;;8.40;;
22429;SDS011;11382;48.086;11.632;2023-06-01T02:16:33;14.27;;;8.80;;
22429;SDS011;11382;48.086;11.632;2023-06-01T02:19:01;12.07;;;8.13;;
22429;SDS011;11382;48.086;11.632;2023-06-01T02:21:29;13.73;;;8.43;;
22429;SDS011;11382;48.086;11.632;2023-06-01T02:24:01;12.30;;;8.32;;
22429;SDS011;11382;48.086;11.632;2023-06-01T02:26:32;10.25;;;7.97;;
22429;SDS011;11382;48.086;11.632;2023-06-01T02:29:00;13.50;;;8.82;;
22429;SDS011;11382;48.086;11.632;2023-06-01T02:31:33;13.27;;;8.65;;
22429;SDS011;11382;48.086;11.632;2023-06-01T02:34:02;11.90;;;8.32;;
22429;SDS011;11382;48.086;11.632;2023-06-01T02:36:31;11.15;;;8.23;;
22429;SDS011;11382;48.086;11.632;2023-06-01T02:38:59;10.57;;;7.82;;
22429;SDS011;11382;48.086;11.632;2023-06-01T02:41:27;14.10;;;8.85;;
22429;SDS011;11382;48.086;11.632;2023-06-01T02:43:55;14.43;;;7.78;;
22429;SDS011;11382;48.086;11.632;2023-06-01T02:46:25;16.70;;;9.40;;
22429;SDS011;11382;48.086;11.632;2023-06-01T02:48:54;17.13;;;9.10;;
22429;SDS011;11382;48.086;11.632;2023-06-01T02:51:22;14.40;;;8.38;;
22429;SDS011;11382;48.086;11.632;2023-06-01T02:54:00;12.35;;;8.75;;
22429;SDS011;11382;48.086;11.632;2023-06-01T02:56:28;9.98;;;7.65;;
22429;SDS011;11382;48.086;11.632;2023-06-01T02:59:11;10.45;;;7.70;;
22429;SDS011;11382;48.086;11.632;2023-06-01T03:01:45;14.70;;;8.50;;
22429;SDS011;11382;48.086;11.632;2023-06-01T03:04:15;12.10;;;8.20;;
22429;SDS011;11382;48.086;11.632;2023-06-01T03:06:44;13.93;;;8.82;;
22429;SDS011;11382;48.086;11.632;2023-06-01T03:09:31;13.82;;;9.20;;
22429;SDS011;11382;48.086;11.632;2023-06-01T03:12:10;12.98;;;8.80;;
22429;SDS011;11382;48.086;11.632;2023-06-01T03:14:39;12.38;;;8.80;;
22429;SDS011;11382;48.086;11.632;2023-06-01T03:17:07;13.98;;;8.88;;
22429;SDS011;11382;48.086;11.632;2023-06-01T03:19:36;10.82;;;7.45;;
22429;SDS011;11382;48.086;11.632;2023-06-01T03:22:14;13.32;;;8.20;;
22429;SDS011;11382;48.086;11.632;2023-06-01T03:24:42;12.98;;;8.52;;
22429;SDS011;11382;48.086;11.632;2023-06-01T03:27:14;13.05;;;8.70;;
22429;SDS011;11382;48.086;11.632;2023-06-01T03:29:42;12.52;;;8.77;;
22429;SDS011;11382;48.086;11.632;2023-06-01T03:32:10;11.80;;;8.50;;
22429;SDS011;11382;48.086;11.632;2023-06-01T03:34:40;12.75;;;8.18;;
22429;SDS011;11382;48.086;11.632;2023-06-01T03:37:08;10.32;;;7.90;;
22429;SDS011;11382;48.086;11.632;2023-06-01T03:39:36;13.65;;;8.05;;
22429;SDS011;11382;48.086;11.632;2023-06-01T03:42:08;12.50;;;8.65;;
22429;SDS011;11382;48.086;11.632;2023-06-01T03:44:38;14.13;;;8.05;;
22429;SDS011;11382;48.086;11.632;2023-06-01T03:47:07;11.07;;;7.78;;
22429;SDS011;11382;48.086;11.632;2023-06-01T03:49:36;9.50;;;7.32;;
22429;SDS011;11382;48.086;11.632;2023-06-01T03:52:09;10.13;;;7.45;;
22429;SDS011;11382;48.086;11.632;2023-06-01T03:54:37;12.88;;;7.47;;
22429;SDS011;11382;48.086;11.632;2023-06-01T03:57:15;10.80;;;7.43;;
22429;SDS011;11382;48.086;11.632;2023-06-01T03:59:43;10.68;;;7.63;;
22429;SDS011;11382;48.086;11.632;2023-06-01T04:02:11;9.75;;;7.05;;
22429;SDS011;11382;48.086;11.632;2023-06-01T04:04:40;11.93;;;8.15;;
22429;SDS011;11382;48.086;11.632;2023-06-01T04:07:13;11.23;;;8.05;;
22429;SDS011;11382;48.086;11.632;2023-06-01T04:09:45;10.95;;;7.95;;
22429;SDS011;11382;48.086;11.632;2023-06-01T04:12:13;13.85;;;8.13;;
22429;SDS011;11382;48.086;11.632;2023-06-01T04:14:42;11.20;;;8.43;;
22429;SDS011;11382;48.086;11.632;2023-06-01T04:17:10;11.27;;;7.60;;
22429;SDS011;11382;48.086;11.632;2023-06-01T04:19:38;10.07;;;7.97;;
22429;SDS011;11382;48.086;11.632;2023-06-01T04:22:09;11.52;;;7.00;;
22429;SDS011;11382;48.086;11.632;2023-06-01T04:24:38;11.40;;;7.82;;
22429;SDS011;11382;48.086;11.632;2023-06-01T04:27:06;13.82;;;7.50;;
22429;SDS011;11382;48.086;11.632;2023-06-01T04:29:35;14.45;;;7.53;;
22429;SDS011;11382;48.086;11.632;2023-06-01T04:32:06;9.45;;;7.13;;
22429;SDS011;11382;48.086;11.632;2023-06-01T04:34:34;10.80;;;7.93;;
22429;SDS011;11382;48.086;11.632;2023-06-01T04:37:05;10.77;;;7.68;;
22429;SDS011;11382;48.086;11.632;2023-06-01T04:39:34;9.95;;;7.72;;
22429;SDS011;11382;48.086;11.632;2023-06-01T04:42:04;9.88;;;7.30;;
22429;SDS011;11382;48.086;11.632;2023-06-01T04:44:33;13.75;;;7.78;;
22429;SDS011;11382;48.086;11.632;2023-06-01T04:47:03;11.70;;;8.02;;
22429;SDS011;11382;48.086;11.632;2023-06-01T04:49:31;12.02;;;7.63;;
22429;SDS011;11382;48.086;11.632;2023-06-01T04:52:01;12.70;;;8.13;;
22429;SDS011;11382;48.086;11.632;2023-06-01T04:54:30;10.68;;;7.53;;
22429;SDS011;11382;48.086;11.632;2023-06-01T04:56:58;10.65;;;7.65;;
22429;SDS011;11382;48.086;11.632;2023-06-01T04:59:28;11.02;;;7.50;;
22429;SDS011;11382;48.086;11.632;2023-06-01T05:01:56;11.27;;;7.95;;
22429;SDS011;11382;48.086;11.632;2023-06-01T05:04:24;16.98;;;8.57;;
22429;SDS011;11382;48.086;11.632;2023-06-01T05:06:52;10.25;;;7.93;;
22429;SDS011;11382;48.086;11.632;2023-06-01T05:09:20;10.05;;;7.82;;
22429;SDS011;11382;48.086;11.632;2023-06-01T05:11:48;10.73;;;7.82;;
22429;SDS011;11382;48.086;11.632;2023-06-01T05:14:16;12.00;;;8.77;;
22429;SDS011;11382;48.086;11.632;2023-06-01T05:16:46;10.23;;;7.95;;
22429;SDS011;11382;48.086;11.632;2023-06-01T05:19:16;13.10;;;8.45;;
22429;SDS011;11382;48.086;11.632;2023-06-01T05:21:44;12.35;;;8.20;;
22429;SDS011;11382;48.086;11.632;2023-06-01T05:24:12;11.80;;;7.95;;
22429;SDS011;11382;48.086;11.632;2023-06-01T05:26:40;14.18;;;7.97;;
22429;SDS011;11382;48.086;11.632;2023-06-01T05:29:08;12.32;;;7.82;;
22429;SDS011;11382;48.086;11.632;2023-06-01T05:31:36;10.68;;;7.68;;
22429;SDS011;11382;48.086;11.632;2023-06-01T05:34:05;12.52;;;7.60;;
22429;SDS011;11382;48.086;11.632;2023-06-01T05:36:33;10.52;;;7.60;;
22429;SDS011;11382;48.086;11.632;2023-06-01T05:39:01;11.35;;;8.30;;
22429;SDS011;11382;48.086;11.632;2023-06-01T05:41:30;9.65;;;7.40;;
22429;SDS011;11382;48.086;11.632;2023-06-01T05:43:58;13.05;;;7.55;;
22429;SDS011;11382;48.086;11.632;2023-06-01T05:46:26;13.82;;;8.00;;
22429;SDS011;11382;48.086;11.632;2023-06-01T05:48:54;8.80;;;6.85;;
22429;SDS011;11382;48.086;11.632;2023-06-01T05:51:24;9.73;;;7.40;;
22429;SDS011;11382;48.086;11.632;2023-06-01T05:53:53;11.82;;;7.47;;
22429;SDS011;11382;48.086;11.632;2023-06-01T05:56:21;10.32;;;6.63;;
22429;SDS011;11382;48.086;11.632;2023-06-01T05:58:49;10.32;;;7.05;;
22429;SDS011;11382;48.086;11.632;2023-06-01T06:01:19;13.07;;;7.03;;
22429;SDS011;11382;48.086;11.632;2023-06-01T06:03:48;10.15;;;6.80;;
22429;SDS011;11382;48.086;11.632;2023-06-01T06:06:17;10.65;;;6.72;;
22429;SDS011;11382;48.086;11.632;2023-06-01T06:08:51;13.15;;;6.72;;
22429;SDS011;11382;48.086;11.632;2023-06-01T06:11:19;11.77;;;6.28;;
22429;SDS011;11382;48.086;11.632;2023-06-01T06:13:48;12.23;;;7.00;;
22429;SDS011;11382;48.086;11.632;2023-06-01T06:16:16;11.73;;;7.30;;
22429;SDS011;11382;48.086;11.632;2023-06-01T06:18:45;10.60;;;6.82;;
22429;SDS011;11382;48.086;11.632;2023-06-01T06:21:13;10.35;;;6.57;;
22429;SDS011;11382;48.086;11.632;2023-06-01T06:23:44;8.85;;;6.35;;
22429;SDS011;11382;48.086;11.632;2023-06-01T06:26:14;8.55;;;6.65;;
22429;SDS011;11382;48.086;11.632;2023-06-01T06:28:41;8.48;;;6.50;;
22429;SDS011;11382;48.086;11.632;2023-06-01T06:31:09;10.70;;;6.40;;
22429;SDS011;11382;48.086;11.632;2023-06-01T06:33:37;9.05;;;6.60;;
22429;SDS011;11382;48.086;11.632;2023-06-01T06:36:05;8.23;;;6.13;;
22429;SDS011;11382;48.086;11.632;2023-06-01T06:38:33;7.75;;;6.22;;
22429;SDS011;11382;48.086;11.632;2023-06-01T06:41:01;13.50;;;6.53;;
22429;SDS011;11382;48.086;11.632;2023-06-01T06:43:33;8.90;;;5.95;;
22429;SDS011;11382;48.086;11.632;2023-06-01T06:46:01;10.48;;;6.78;;
22429;SDS011;11382;48.086;11.632;2023-06-01T06:48:29;11.02;;;6.07;;
22429;SDS011;11382;48.086;11.632;2023-06-01T06:50:58;10.65;;;6.53;;
22429;SDS011;11382;48.086;11.632;2023-06-01T06:53:26;9.98;;;6.32;;
22429;SDS011;11382;48.086;11.632;2023-06-01T06:55:54;9.85;;;6.45;;
22429;SDS011;11382;48.086;11.632;2023-06-01T06:58:22;9.27;;;6.53;;
22429;SDS011;11382;48.086;11.632;2023-06-01T07:00:52;11.38;;;6.95;;
22429;SDS011;11382;48.086;11.632;2023-06-01T07:03:20;11.90;;;6.82;;
22429;SDS011;11382;48.086;11.632;2023-06-01T07:05:49;10.50;;;6.75;;
22429;SDS011;11382;48.086;11.632;2023-06-01T07:08:17;9.35;;;6.53;;
22429;SDS011;11382;48.086;11.632;2023-06-01T07:10:46;7.50;;;6.50;;
22429;SDS011;11382;48.086;11.632;2023-06-01T07:13:13;9.85;;;6.57;;
22429;SDS011;11382;48.086;11.632;2023-06-01T07:15:42;9.32;;;6.85;;
22429;SDS011;11382;48.086;11.632;2023-06-01T07:18:11;8.57;;;6.07;;
22429;SDS011;11382;48.086;11.632;2023-06-01T07:20:39;9.43;;;6.18;;
22429;SDS011;11382;48.086;11.632;2023-06-01T07:23:07;10.57;;;6.10;;
22429;SDS011;11382;48.086;11.632;2023-06-01T07:25:38;10.13;;;6.53;;
22429;SDS011;11382;48.086;11.632;2023-06-01T07:28:06;10.55;;;7.03;;
22429;SDS011;11382;48.086;11.632;2023-06-01T07:30:36;10.27;;;6.60;;
22429;SDS011;11382;48.086;11.632;2023-06-01T07:33:04;9.18;;;6.88;;
22429;SDS011;11382;48.086;11.632;2023-06-01T07:35:33;10.43;;;6.75;;
22429;SDS011;11382;48.086;11.632;2023-06-01T07:38:02;9.88;;;6.10;;
22429;SDS011;11382;48.086;11.632;2023-06-01T07:40:30;11.52;;;6.18;;
22429;SDS011;11382;48.086;11.632;2023-06-01T07:42:58;9.40;;;6.35;;
22429;SDS011;11382;48.086;11.632;2023-06-01T07:45:26;9.70;;;6.20;;
22429;SDS011;11382;48.086;11.632;2023-06-01T07:47:54;9.98;;;6.13;;
22429;SDS011;11382;48.086;11.632;2023-06-01T07:50:22;9.05;;;6.68;;
22429;SDS011;11382;48.086;11.632;2023-06-01T07:52:56;11.02;;;6.80;;
22429;SDS011;11382;48.086;11.632;2023-06-01T07:55:24;10.70;;;6.63;;
22429;SDS011;11382;48.086;11.632;2023-06-01T07:57:52;10.07;;;6.68;;
22429;SDS011;11382;48.086;11.632;2023-06-01T08:00:20;10.02;;;6.68;;
22429;SDS011;11382;48.086;11.632;2023-06-01T08:02:48;11.90;;;6.13;;
22429;SDS011;11382;48.086;11.632;2023-06-01T08:05:18;8.48;;;6.05;;
22429;SDS011;11382;48.086;11.632;2023-06-01T08:07:46;9.23;;;6.55;;
22429;SDS011;11382;48.086;11.632;2023-06-01T08:10:16;8.85;;;6.13;;
22429;SDS011;11382;48.086;11.632;2023-06-01T08:12:44;8.13;;;6.55;;
22429;SDS011;11382;48.086;11.632;2023-06-01T08:15:15;8.70;;;6.38;;
22429;SDS011;11382;48.086;11.632;2023-06-01T08:17:43;7.68;;;5.85;;
22429;SDS011;11382;48.086;11.632;2023-06-01T08:20:11;8.90;;;6.10;;
22429;SDS011;11382;48.086;11.632;2023-06-01T08:22:40;8.90;;;6.18;;
22429;SDS011;11382;48.086;11.632;2023-06-01T08:25:08;7.15;;;5.97;;
22429;SDS011;11382;48.086;11.632;2023-06-01T08:27:38;8.10;;;5.70;;
22429;SDS011;11382;48.086;11.632;2023-06-01T08:30:07;10.88;;;6.70;;
22429;SDS011;11382;48.086;11.632;2023-06-01T08:32:35;7.65;;;5.60;;
22429;SDS011;11382;48.086;11.632;2023-06-01T08:35:03;8.05;;;6.10;;
22429;SDS011;11382;48.086;11.632;2023-06-01T08:37:33;12.00;;;5.35;;
22429;SDS011;11382;48.086;11.632;2023-06-01T08:40:01;9.88;;;5.97;;
22429;SDS011;11382;48.086;11.632;2023-06-01T08:42:34;7.88;;;6.28;;
22429;SDS011;11382;48.086;11.632;2023-06-01T08:45:11;8.63;;;5.40;;
22429;SDS011;11382;48.086;11.632;2023-06-01T08:47:40;9.63;;;6.20;;
22429;SDS011;11382;48.086;11.632;2023-06-01T08:50:09;8.20;;;5.75;;
22429;SDS011;11382;48.086;11.632;2023-06-01T08:52:38;8.35;;;5.85;;
22429;SDS011;11382;48.086;11.632;2023-06-01T08:55:11;8.48;;;5.72;;
22429;SDS011;11382;48.086;11.632;2023-06-01T09:00:13;8.43;;;5.70;;
22429;SDS011;11382;48.086;11.632;2023-06-01T09:02:43;8.25;;;6.20;;
22429;SDS011;11382;48.086;11.632;2023-06-01T09:05:11;8.38;;;5.82;;
22429;SDS011;11382;48.086;11.632;2023-06-01T09:07:40;7.53;;;5.82;;
22429;SDS011;11382;48.086;11.632;2023-06-01T09:10:08;7.53;;;5.80;;
22429;SDS011;11382;48.086;11.632;2023-06-01T09:12:38;7.90;;;6.15;;
22429;SDS011;11382;48.086;11.632;2023-06-01T09:15:19;6.88;;;5.80;;
22429;SDS011;11382;48.086;11.632;2023-06-01T09:17:49;7.67;;;5.87;;
22429;SDS011;11382;48.086;11.632;2023-06-01T09:20:23;6.80;;;6.10;;
22429;SDS011;11382;48.086;11.632;2023-06-01T09:22:52;6.93;;;6.00;;
22429;SDS011;11382;48.086;11.632;2023-06-01T09:25:23;7.20;;;5.78;;
22429;SDS011;11382;48.086;11.632;2023-06-01T09:27:54;8.48;;;6.18;;
22429;SDS011;11382;48.086;11.632;2023-06-01T09:30:25;7.22;;;5.32;;
22429;SDS011;11382;48.086;11.632;2023-06-01T09:33:07;8.07;;;5.50;;
22429;SDS011;11382;48.086;11.632;2023-06-01T09:35:40;7.70;;;6.20;;
22429;SDS011;11382;48.086;11.632;2023-06-01T09:38:10;7.80;;;5.82;;
22429;SDS011;11382;48.086;11.632;2023-06-01T09:40:39;8.88;;;6.32;;
22429;SDS011;11382;48.086;11.632;2023-06-01T09:43:19;7.53;;;5.78;;
22429;SDS011;11382;48.086;11.632;2023-06-01T09:48:44;7.07;;;5.72;;
22429;SDS011;11382;48.086;11.632;2023-06-01T09:51:22;7.72;;;5.97;;
22429;SDS011;11382;48.086;11.632;2023-06-01T09:53:55;8.25;;;5.80;;
22429;SDS011;11382;48.086;11.632;2023-06-01T09:56:23;7.78;;;5.47;;
22429;SDS011;11382;48.086;11.632;2023-06-01T09:58:56;6.60;;;5.47;;
22429;SDS011;11382;48.086;11.632;2023-06-01T10:01:27;6.45;;;5.80;;
22429;SDS011;11382;48.086;11.632;2023-06-01T10:03:58;8.18;;;5.70;;
22429;SDS011;11382;48.086;11.632;2023-06-01T10:06:29;7.60;;;5.90;;
22429;SDS011;11382;48.086;11.632;2023-06-01T10:09:01;9.20;;;6.18;;
22429;SDS011;11382;48.086;11.632;2023-06-01T10:11:30;9.10;;;5.72;;
22429;SDS011;11382;48.086;11.632;2023-06-01T10:13:59;7.18;;;5.80;;
22429;SDS011;11382;48.086;11.632;2023-06-01T10:16:27;6.88;;;5.18;;
22429;SDS011;11382;48.086;11.632;2023-06-01T10:18:55;6.95;;;5.63;;
22429;SDS011;11382;48.086;11.632;2023-06-01T10:21:26;7.53;;;5.47;;
22429;SDS011;11382;48.086;11.632;2023-06-01T10:23:55;7.68;;;5.85;;
22429;SDS011;11382;48.086;11.632;2023-06-01T10:26:23;8.38;;;5.72;;
22429;SDS011;11382;48.086;11.632;2023-06-01T10:28:54;6.95;;;5.82;;
22429;SDS011;11382;48.086;11.632;2023-06-01T10:31:33;7.82;;;5.90;;
22429;SDS011;11382;48.086;11.632;2023-06-01T10:34:04;8.93;;;5.45;;
22429;SDS011;11382;48.086;11.632;2023-06-01T10:39:40;6.75;;;5.28;;
22429;SDS011;11382;48.086;11.632;2023-06-01T10:48:04;6.55;;;5.38;;
22429;SDS011;11382;48.086;11.632;2023-06-01T10:50:34;8.05;;;5.70;;
22429;SDS011;11382;48.086;11.632;2023-06-01T10:58:46;6.85;;;5.78;;
22429;SDS011;11382;48.086;11.632;2023-06-01T11:01:18;7.90;;;4.93;;
22429;SDS011;11382;48.086;11.632;2023-06-01T11:03:48;7.32;;;5.93;;
22429;SDS011;11382;48.086;11.632;2023-06-01T11:06:25;6.18;;;5.15;;
22429;SDS011;11382;48.086;11.632;2023-06-01T11:08:57;6.25;;;5.55;;
22429;SDS011;11382;48.086;11.632;2023-06-01T11:19:58;7.90;;;6.00;;
22429;SDS011;11382;48.086;11.632;2023-06-01T11:22:38;6.88;;;5.30;;
22429;SDS011;11382;48.086;11.632;2023-06-01T11:25:07;5.93;;;5.32;;
22429;SDS011;11382;48.086;11.632;2023-06-01T11:27:36;7.45;;;5.53;;
22429;SDS011;11382;48.086;11.632;2023-06-01T11:30:09;8.55;;;5.32;;
22429;SDS011;11382;48.086;11.632;2023-06-01T11:32:38;7.60;;;4.90;;
22429;SDS011;11382;48.086;11.632;2023-06-01T11:35:17;6.95;;;5.50;;
22429;SDS011;11382;48.086;11.632;2023-06-01T11:37:53;8.43;;;6.18;;
22429;SDS011;11382;48.086;11.632;2023-06-01T11:40:22;6.97;;;5.68;;
22429;SDS011;11382;48.086;11.632;2023-06-01T11:42:55;8.85;;;6.10;;
22429;SDS011;11382;48.086;11.632;2023-06-01T11:45:23;6.95;;;5.68;;
22429;SDS011;11382;48.086;11.632;2023-06-01T11:47:52;9.30;;;5.78;;
22429;SDS011;11382;48.086;11.632;2023-06-01T11:50:21;7.88;;;5.90;;
22429;SDS011;11382;48.086;11.632;2023-06-01T11:52:55;8.77;;;5.38;;
22429;SDS011;11382;48.086;11.632;2023-06-01T11:55:23;6.85;;;5.47;;
22429;SDS011;11382;48.086;11.632;2023-06-01T11:57:52;7.38;;;5.60;;
22429;SDS011;11382;48.086;11.632;2023-06-01T12:00:20;8.27;;;5.78;;
22429;SDS011;11382;48.086;11.632;2023-06-01T12:02:49;7.22;;;5.55;;
22429;SDS011;11382;48.086;11.632;2023-06-01T12:05:37;7.32;;;5.25;;
22429;SDS011;11382;48.086;11.632;2023-06-01T12:08:08;9.05;;;5.47;;
22429;SDS011;11382;48.086;11.632;2023-06-01T12:10:41;10.10;;;5.03;;
22429;SDS011;11382;48.086;11.632;2023-06-01T12:13:13;7.63;;;5.63;;
22429;SDS011;11382;48.086;11.632;2023-06-01T12:15:41;8.32;;;4.97;;
22429;SDS011;11382;48.086;11.632;2023-06-01T12:18:10;7.60;;;5.70;;
22429;SDS011;11382;48.086;11.632;2023-06-01T12:20:39;7.80;;;5.45;;
22429;SDS011;11382;48.086;11.632;2023-06-01T12:23:13;8.13;;;5.53;;
22429;SDS011;11382;48.086;11.632;2023-06-01T12:25:48;8.45;;;5.32;;
22429;SDS011;11382;48.086;11.632;2023-06-01T12:28:17;8.40;;;5.50;;
22429;SDS011;11382;48.086;11.632;2023-06-01T12:30:46;9.98;;;5.38;;
22429;SDS011;11382;48.086;11.632;2023-06-01T12:33:30;8.23;;;5.38;;
22429;SDS011;11382;48.086;11.632;2023-06-01T12:36:00;7.32;;;5.35;;
22429;SDS011;11382;48.086;11.632;2023-06-01T12:38:30;6.72;;;5.35;;
22429;SDS011;11382;48.086;11.632;2023-06-01T12:41:05;8.30;;;5.15;;
22429;SDS011;11382;48.086;11.632;2023-06-01T12:43:35;9.80;;;5.60;;
22429;SDS011;11382;48.086;11.632;2023-06-01T12:46:04;8.98;;;5.15;;
22429;SDS011;11382;48.086;11.632;2023-06-01T12:48:33;8.30;;;5.45;;
22429;SDS011;11382;48.086;11.632;2023-06-01T12:51:03;7.68;;;4.65;;
22429;SDS011;11382;48.086;11.632;2023-06-01T12:53:33;6.78;;;5.13;;
22429;SDS011;11382;48.086;11.632;2023-06-01T12:56:01;8.60;;;5.53;;
22429;SDS011;11382;48.086;11.632;2023-06-01T12:58:29;7.97;;;5.40;;
22429;SDS011;11382;48.086;11.632;2023-06-01T13:00:57;7.30;;;5.10;;
22429;SDS011;11382;48.086;11.632;2023-06-01T13:03:25;9.20;;;5.20;;
22429;SDS011;11382;48.086;11.632;2023-06-01T13:05:54;7.10;;;5.22;;
22429;SDS011;11382;48.086;11.632;2023-06-01T13:08:22;10.25;;;5.43;;
22429;SDS011;11382;48.086;11.632;2023-06-01T13:10:52;6.40;;;5.30;;
22429;SDS011;11382;48.086;11.632;2023-06-01T13:13:21;8.25;;;4.75;;
22429;SDS011;11382;48.086;11.632;2023-06-01T13:15:49;7.15;;;4.80;;
22429;SDS011;11382;48.086;11.632;2023-06-01T13:18:17;9.70;;;5.70;;
22429;SDS011;11382;48.086;11.632;2023-06-01T13:20:45;10.73;;;4.80;;
22429;SDS011;11382;48.086;11.632;2023-06-01T13:23:14;6.60;;;4.95;;
22429;SDS011;11382;48.086;11.632;2023-06-01T13:25:42;8.20;;;5.20;;
22429;SDS011;11382;48.086;11.632;2023-06-01T13:28:12;6.65;;;4.75;;
22429;SDS011;11382;48.086;11.632;2023-06-01T13:30:40;6.57;;;5.22;;
22429;SDS011;11382;48.086;11.632;2023-06-01T13:33:08;7.85;;;5.40;;
22429;SDS011;11382;48.086;11.632;2023-06-01T13:35:36;7.55;;;5.13;;
22429;SDS011;11382;48.086;11.632;2023-06-01T13:38:04;14.00;;;5.05;;
22429;SDS011;11382;48.086;11.632;2023-06-01T13:40:32;9.45;;;5.07;;
22429;SDS011;11382;48.086;11.632;2023-06-01T13:43:00;7.70;;;5.13;;
22429;SDS011;11382;48.086;11.632;2023-06-01T13:45:30;8.98;;;5.35;;
22429;SDS011;11382;48.086;11.632;2023-06-01T13:47:58;7.90;;;5.25;;
22429;SDS011;11382;48.086;11.632;2023-06-01T13:50:26;8.30;;;4.78;;
22429;SDS011;11382;48.086;11.632;2023-06-01T13:52:54;7.78;;;5.47;;
22429;SDS011;11382;48.086;11.632;2023-06-01T13:55:22;7.18;;;5.32;;
22429;SDS011;11382;48.086;11.632;2023-06-01T13:57:51;6.10;;;4.70;;
22429;SDS011;11382;48.086;11.632;2023-06-01T14:00:19;7.32;;;5.00;;
22429;SDS011;11382;48.086;11.632;2023-06-01T14:02:49;9.77;;;5.10;;
22429;SDS011;11382;48.086;11.632;2023-06-01T14:05:17;7.50;;;4.95;;
22429;SDS011;11382;48.086;11.632;2023-06-01T14:08:00;8.25;;;5.10;;
22429;SDS011;11382;48.086;11.632;2023-06-01T14:10:30;7.43;;;4.50;;
22429;SDS011;11382;48.086;11.632;2023-06-01T14:13:00;8.07;;;4.78;;
22429;SDS011;11382;48.086;11.632;2023-06-01T14:15:28;6.63;;;4.93;;
22429;SDS011;11382;48.086;11.632;2023-06-01T14:17:59;6.78;;;4.75;;
22429;SDS011;11382;48.086;11.632;2023-06-01T14:20:27;7.55;;;5.03;;
22429;SDS011;11382;48.086;11.632;2023-06-01T14:22:55;9.18;;;5.00;;
22429;SDS011;11382;48.086;11.632;2023-06-01T14:25:23;7.80;;;4.80;;
22429;SDS011;11382;48.086;11.632;2023-06-01T14:27:51;7.88;;;4.75;;
22429;SDS011;11382;48.086;11.632;2023-06-01T14:30:19;7.88;;;4.93;;
22429;SDS011;11382;48.086;11.632;2023-06-01T14:32:47;5.57;;;3.90;;
22429;SDS011;11382;48.086;11.632;2023-06-01T14:35:17;5.75;;;4.40;;
22429;SDS011;11382;48.086;11.632;2023-06-01T14:37:45;10.60;;;5.20;;
22429;SDS011;11382;48.086;11.632;2023-06-01T14:40:15;7.55;;;5.18;;
22429;SDS011;11382;48.086;11.632;2023-06-01T14:42:43;7.50;;;4.30;;
22429;SDS011;11382;48.086;11.632;2023-06-01T14:45:12;8.45;;;4.63;;
22429;SDS011;11382;48.086;11.632;2023-06-01T14:47:40;5.88;;;4.32;;
22429;SDS011;11382;48.086;11.632;2023-06-01T14:50:09;11.50;;;5.03;;
22429;SDS011;11382;48.086;11.632;2023-06-01T14:52:38;7.28;;;4.82;;
22429;SDS011;11382;48.086;11.632;2023-06-01T14:55:07;8.10;;;4.78;;
22429;SDS011;11382;48.086;11.632;2023-06-01T14:57:38;6.60;;;4.82;;
22429;SDS011;11382;48.086;11.632;2023-06-01T15:00:07;8.68;;;4.88;;
22429;SDS011;11382;48.086;11.632;2023-06-01T15:02:37;9.10;;;5.00;;
22429;SDS011;11382;48.086;11.632;2023-06-01T15:05:05;9.40;;;5.10;;
22429;SDS011;11382;48.086;11.632;2023-06-01T15:07:33;8.15;;;4.88;;
22429;SDS011;11382;48.086;11.632;2023-06-01T15:10:03;10.80;;;4.70;;
22429;SDS011;11382;48.086;11.632;2023-06-01T15:12:32;8.00;;;4.72;;